Time;durP1;ratioP1;P1;durP2;ratioP2;P2;SDS_P1;SDS_P2;PMS_P1;PMS_P2;Temp;Humidity;BMP_temperature;BMP_pressure;BME280_temperature;BME280_humidity;BME280_pressure;Samples;Min_cycle;Max_cycle;Signal;HPM_P1;HPM_P2
2022/06/14 00:01:42;;;;;;;9.40;2.40;;;;;;;9.66;100.00;99811.56;105177;1267;60521;-66
2022/06/14 00:04:47;;;;;;;10.10;2.50;;;;;;;9.65;100.00;99812.19;104684;1266;1002934;-67
2022/06/14 00:07:53;;;;;;;12.50;2.40;;;;;;;9.64;100.00;99811.89;105345;1267;75413;-67
2022/06/14 00:10:41;;;;;;;8.00;2.40;;;;;;;9.63;100.00;99810.73;105161;1268;66705;-66
2022/06/14 00:13:28;;;;;;;8.50;2.30;;;;;;;9.61;100.00;99810.90;105202;1267;73300;-66
2022/06/14 00:16:17;;;;;;;10.10;2.50;;;;;;;9.61;100.00;99811.06;105191;1267;60392;-65
2022/06/14 00:19:05;;;;;;;9.00;3.10;;;;;;;9.59;100.00;99807.04;105207;1267;60700;-67
2022/06/14 00:21:52;;;;;;;10.40;2.50;;;;;;;9.58;100.00;99807.61;105032;1267;75258;-66
2022/06/14 00:24:38;;;;;;;11.60;2.70;;;;;;;9.57;100.00;99810.89;105134;1265;69453;-65
2022/06/14 00:27:25;;;;;;;11.50;2.90;;;;;;;9.55;100.00;99808.52;105062;1268;74353;-66
2022/06/14 00:30:13;;;;;;;8.50;2.20;;;;;;;9.53;100.00;99809.68;105169;1268;60758;-64
2022/06/14 00:33:00;;;;;;;9.20;2.50;;;;;;;9.52;100.00;99810.13;104946;1267;60700;-65
2022/06/14 00:35:48;;;;;;;12.50;2.70;;;;;;;9.52;100.00;99808.04;105093;1267;73128;-66
2022/06/14 00:38:38;;;;;;;10.30;3.00;;;;;;;9.50;100.00;99805.55;105125;1270;68461;-65
2022/06/14 00:41:36;;;;;;;11.10;2.60;;;;;;;9.49;100.00;99805.64;105254;1268;73380;-65
2022/06/14 00:44:27;;;;;;;7.30;1.90;;;;;;;9.48;100.00;99806.77;105167;1267;61824;-65
2022/06/14 00:47:15;;;;;;;10.20;2.30;;;;;;;9.47;100.00;99808.42;105336;1267;60560;-64
2022/06/14 00:50:12;;;;;;;9.10;2.30;;;;;;;9.46;100.00;99809.58;105037;1270;74838;-64
2022/06/14 00:53:14;;;;;;;10.30;2.70;;;;;;;9.45;100.00;99812.70;105207;1267;67525;-63
2022/06/14 00:56:50;;;;;;;8.30;2.50;;;;;;;9.43;100.00;99810.70;105462;1267;73255;-63
2022/06/14 00:59:42;;;;;;;9.90;2.40;;;;;;;9.41;100.00;99806.61;104730;1273;60515;-63
2022/06/14 01:02:37;;;;;;;9.80;2.40;;;;;;;9.41;100.00;99807.46;104716;1273;60521;-62
2022/06/14 01:09:13;;;;;;;10.50;2.50;;;;;;;9.38;100.00;99803.41;104790;1273;67692;-63
2022/06/14 01:12:09;;;;;;;7.40;2.10;;;;;;;9.38;100.00;99802.41;104939;1273;73266;-63
2022/06/14 01:15:21;;;;;;;7.40;2.00;;;;;;;9.36;100.00;99799.70;104877;1273;60692;-64
2022/06/14 01:18:13;;;;;;;7.60;2.00;;;;;;;9.36;100.00;99800.05;104819;1273;60542;-65
2022/06/14 01:21:00;;;;;;;9.00;2.10;;;;;;;9.36;100.00;99802.70;104837;1273;74501;-63
2022/06/14 01:23:46;;;;;;;9.30;2.30;;;;;;;9.36;100.00;99805.04;104748;1273;69404;-64
2022/06/14 01:26:34;;;;;;;9.10;2.40;;;;;;;9.35;100.00;99806.02;104779;1273;73274;-63
2022/06/14 01:29:22;;;;;;;8.80;2.50;;;;;;;9.33;100.00;99805.95;104749;1273;60557;-64
2022/06/14 01:32:12;;;;;;;9.30;2.10;;;;;;;9.32;100.00;99805.86;104746;1273;60854;-67
2022/06/14 01:35:06;;;;;;;7.50;2.30;;;;;;;9.31;100.00;99803.13;104918;1267;75416;-63
2022/06/14 01:37:56;;;;;;;7.90;2.20;;;;;;;9.31;100.00;99806.80;105343;1268;67160;-65
2022/06/14 01:41:13;;;;;;;9.50;2.30;;;;;;;9.30;100.00;99806.86;105145;1267;74163;-64
2022/06/14 01:44:58;;;;;;;7.60;2.00;;;;;;;9.30;100.00;99808.83;105261;1267;60567;-64
2022/06/14 01:48:08;;;;;;;8.40;2.00;;;;;;;9.29;100.00;99806.60;105265;1266;60452;-64
2022/06/14 01:54:44;;;;;;;8.30;2.10;;;;;;;9.29;100.00;99808.20;105122;1267;68366;-66
2022/06/14 01:58:07;;;;;;;9.20;2.10;;;;;;;9.30;100.00;99806.75;105219;1267;72552;-64
2022/06/14 02:01:06;;;;;;;11.20;2.30;;;;;;;9.30;100.00;99807.56;105262;1267;60568;-65
2022/06/14 02:04:39;;;;;;;8.40;1.90;;;;;;;9.32;100.00;99810.70;105254;1267;60538;-64
2022/06/14 02:08:02;;;;;;;10.40;2.30;;;;;;;9.33;100.00;99807.52;105224;1267;75540;-63
2022/06/14 02:11:16;;;;;;;10.50;2.20;;;;;;;9.34;100.00;99806.56;105480;1268;68639;-65
2022/06/14 02:14:10;;;;;;;8.40;2.10;;;;;;;9.37;100.00;99812.92;105204;1268;72632;-66
2022/06/14 02:17:18;;;;;;;6.20;1.80;;;;;;;9.40;100.00;99812.55;105138;1267;60474;-64
2022/06/14 02:20:22;;;;;;;7.60;2.30;;;;;;;9.42;100.00;99809.55;105480;1267;62122;-67
2022/06/14 02:23:12;;;;;;;7.80;1.70;;;;;;;9.47;100.00;99807.94;105338;1267;75484;-65
2022/06/14 02:26:07;;;;;;;9.20;2.30;;;;;;;9.54;100.00;99809.48;105077;1267;67237;-65
2022/06/14 02:29:13;;;;;;;8.70;1.90;;;;;;;9.61;100.00;99811.44;105403;1267;73885;-66
2022/06/14 02:32:08;;;;;;;8.30;2.10;;;;;;;9.67;100.00;99814.48;105108;1267;60462;-64
2022/06/14 02:35:24;;;;;;;7.70;2.00;;;;;;;9.72;100.00;99810.02;105390;1268;60481;-69
2022/06/14 02:38:30;;;;;;;8.50;2.00;;;;;;;9.76;100.00;99806.20;105361;1267;72794;-67
2022/06/14 02:41:42;;;;;;;7.20;2.00;;;;;;;9.77;100.00;99805.38;105633;1268;67108;-68
2022/06/14 02:45:05;;;;;;;8.40;2.20;;;;;;;9.79;100.00;99808.77;105489;1268;74187;-68
2022/06/14 02:48:14;;;;;;;11.80;2.80;;;;;;;9.80;100.00;99810.66;105129;1268;60565;-66
2022/06/14 02:51:13;;;;;;;8.50;2.10;;;;;;;9.80;100.00;99813.34;105184;1267;61046;-67
2022/06/14 02:54:19;;;;;;;8.90;1.80;;;;;;;9.80;100.00;99815.30;105198;1267;74522;-65
2022/06/14 02:57:54;;;;;;;8.10;2.10;;;;;;;9.80;100.00;99813.89;105162;1268;67928;-65
2022/06/14 03:01:15;;;;;;;7.40;1.80;;;;;;;9.81;100.00;99818.05;105182;1267;74100;-65
2022/06/14 03:04:39;;;;;;;8.10;2.10;;;;;;;9.86;100.00;99814.62;105286;1268;60693;-65
2022/06/14 03:07:51;;;;;;;8.80;2.10;;;;;;;9.97;100.00;99813.41;105317;1267;60329;-64
2022/06/14 03:11:10;;;;;;;10.70;2.10;;;;;;;10.06;100.00;99821.39;105179;1268;72525;-65
2022/06/14 03:15:01;;;;;;;10.90;2.00;;;;;;;10.17;100.00;99820.70;105254;1266;66483;-67
2022/06/14 03:18:30;;;;;;;7.10;1.80;;;;;;;10.35;100.00;99817.83;106280;1268;74224;-64
2022/06/14 03:21:34;;;;;;;8.30;2.00;;;;;;;10.43;99.54;99819.70;105799;1265;60440;-71
2022/06/14 03:24:35;;;;;;;7.70;1.80;;;;;;;10.47;98.65;99817.08;105449;1265;60443;-66
2022/06/14 03:27:29;;;;;;;9.40;1.90;;;;;;;10.55;99.06;99815.91;105480;1265;74531;-67
2022/06/14 03:30:32;;;;;;;8.60;2.10;;;;;;;10.70;98.29;99815.92;105219;1265;69643;-68
2022/06/14 03:34:11;;;;;;;7.30;1.50;;;;;;;10.83;97.87;99816.96;105432;1265;74252;-69
2022/06/14 03:36:58;;;;;;;7.90;2.20;;;;;;;10.93;97.31;99821.36;105443;1268;60588;-70
2022/06/14 03:39:58;;;;;;;7.50;1.90;;;;;;;10.95;96.35;99820.64;105436;1268;60850;-69
2022/06/14 03:42:45;;;;;;;9.80;2.10;;;;;;;10.96;96.26;99823.02;105482;1267;74572;-69
2022/06/14 03:45:55;;;;;;;8.20;1.90;;;;;;;11.00;95.70;99822.15;105138;1268;67472;-71
2022/06/14 03:48:46;;;;;;;8.60;1.80;;;;;;;11.10;95.26;99826.83;105155;1268;71392;-67
2022/06/14 03:52:27;;;;;;;9.10;1.80;;;;;;;11.20;95.00;99832.34;105175;1267;60466;-70
2022/06/14 03:55:35;;;;;;;8.10;1.90;;;;;;;11.32;95.27;99827.63;105242;1265;60363;-67
2022/06/14 03:58:51;;;;;;;8.70;2.10;;;;;;;11.39;95.38;99817.13;105324;1265;75131;-69
2022/06/14 04:01:48;;;;;;;11.30;2.20;;;;;;;11.44;95.08;99821.16;105240;1268;68328;-69
2022/06/14 04:04:54;;;;;;;8.50;2.20;;;;;;;11.50;94.93;99817.64;105305;1265;73673;-69
2022/06/14 04:07:55;;;;;;;9.30;2.20;;;;;;;11.68;94.86;99820.15;105273;1265;60482;-69
2022/06/14 04:10:57;;;;;;;11.10;2.60;;;;;;;11.84;94.27;99817.36;105554;1265;60515;-68
2022/06/14 04:14:11;;;;;;;9.50;2.10;;;;;;;11.96;93.34;99816.58;105446;1268;74330;-74
2022/06/14 04:17:36;;;;;;;11.40;2.50;;;;;;;12.01;92.51;99810.27;105401;1265;68107;-74
2022/06/14 04:20:39;;;;;;;9.10;2.70;;;;;;;12.07;91.80;99804.71;104872;1273;73352;-74
2022/06/14 04:23:40;;;;;;;11.20;3.20;;;;;;;12.08;90.64;99811.14;104903;1273;60470;-72
2022/06/14 04:27:18;;;;;;;8.80;2.20;;;;;;;12.13;90.37;99813.98;104871;1274;60649;-73
2022/06/14 04:30:15;;;;;;;9.20;2.10;;;;;;;12.31;89.83;99812.20;104925;1273;72801;-73
2022/06/14 04:33:27;;;;;;;8.70;2.00;;;;;;;12.52;88.94;99813.00;104964;1276;68555;-73
2022/06/14 04:36:16;;;;;;;8.60;1.80;;;;;;;12.87;87.64;99815.23;104836;1273;74761;-72
2022/06/14 04:39:15;;;;;;;9.50;2.00;;;;;;;13.21;85.26;99821.73;104798;1273;60667;-71
2022/06/14 04:42:17;;;;;;;8.00;2.00;;;;;;;13.60;83.52;99822.56;104860;1275;60556;-74
2022/06/14 04:45:41;;;;;;;9.80;2.00;;;;;;;14.13;80.97;99819.33;104663;1276;74775;-73
2022/06/14 04:48:53;;;;;;;11.50;2.60;;;;;;;14.72;77.42;99819.50;104622;1276;69633;-76
2022/06/14 04:51:59;;;;;;;10.20;2.20;;;;;;;15.40;75.00;99814.49;104676;1273;74337;-73
2022/06/14 04:54:52;;;;;;;10.20;2.20;;;;;;;15.92;70.74;99815.80;104961;1276;60684;-74
2022/06/14 04:57:52;;;;;;;9.60;2.00;;;;;;;16.39;68.40;99815.35;104897;1268;60967;-70
2022/06/14 05:00:51;;;;;;;11.20;1.60;;;;;;;16.84;66.65;99812.45;105787;1267;73821;-72
2022/06/14 05:03:42;;;;;;;11.00;2.20;;;;;;;17.22;64.61;99810.69;105487;1270;68037;-72
2022/06/14 05:06:39;;;;;;;11.50;2.10;;;;;;;17.71;61.88;99806.56;105111;1267;74316;-72
2022/06/14 05:09:36;;;;;;;10.10;1.90;;;;;;;17.57;61.96;99806.09;105572;1268;60511;-74
2022/06/14 05:12:35;;;;;;;9.50;1.90;;;;;;;17.09;62.51;99813.12;105157;1268;60691;-76
2022/06/14 05:15:32;;;;;;;9.60;1.90;;;;;;;16.67;63.87;99815.20;105260;1268;75328;-76
2022/06/14 05:18:46;;;;;;;10.20;1.70;;;;;;;16.76;63.40;99816.48;105200;1267;69696;-76
2022/06/14 05:21:59;;;;;;;8.80;2.10;;;;;;;17.74;61.11;99817.64;105088;1270;73896;-78
2022/06/14 05:24:46;;;;;;;11.30;1.90;;;;;;;18.35;58.20;99814.60;105258;1268;60565;-74
2022/06/14 05:27:46;;;;;;;9.70;1.90;;;;;;;18.84;57.56;99816.47;105604;1268;61996;-75
2022/06/14 05:31:16;;;;;;;8.10;1.70;;;;;;;20.19;53.88;99813.97;105286;1268;75005;-75
2022/06/14 05:34:25;;;;;;;9.20;1.80;;;;;;;21.37;48.29;99819.90;105241;1268;66640;-74
2022/06/14 05:38:12;;;;;;;10.00;1.70;;;;;;;21.79;46.48;99816.95;105391;1268;73349;-77
2022/06/14 05:41:16;;;;;;;10.60;1.90;;;;;;;20.16;49.67;99824.29;105032;1273;59739;-75
2022/06/14 05:44:17;;;;;;;11.40;1.50;;;;;;;19.35;52.46;99834.46;104746;1273;61968;-75
2022/06/14 05:47:23;;;;;;;10.40;1.90;;;;;;;18.41;53.71;99834.36;104672;1275;74460;-76
2022/06/14 05:50:23;;;;;;;8.20;1.60;;;;;;;18.53;54.04;99839.33;105312;1273;67905;-77
2022/06/14 05:53:45;;;;;;;7.10;1.40;;;;;;;20.05;51.57;99835.29;105205;1274;74340;-76
2022/06/14 05:57:28;;;;;;;8.50;1.70;;;;;;;21.12;47.34;99834.91;104273;1282;60467;-77
2022/06/14 06:00:31;;;;;;;9.80;2.40;;;;;;;19.78;50.05;99837.70;104390;1282;61714;-73
2022/06/14 06:03:33;;;;;;;11.40;2.20;;;;;;;19.20;51.68;99845.38;104044;1282;74578;-74
2022/06/14 06:06:57;;;;;;;7.40;1.50;;;;;;;18.74;52.62;99844.13;104281;1282;67978;-74
2022/06/14 06:09:55;;;;;;;8.50;1.70;;;;;;;17.73;54.61;99853.48;104049;1282;74297;-76
2022/06/14 06:12:51;;;;;;;9.80;2.00;;;;;;;16.97;57.12;99860.71;104071;1282;60482;-73
2022/06/14 06:15:48;;;;;;;7.90;1.70;;;;;;;16.28;61.17;99863.10;104019;1282;60363;-74
2022/06/14 06:18:54;;;;;;;14.10;2.50;;;;;;;15.56;64.31;99871.75;104456;1276;74151;-74
2022/06/14 06:22:10;;;;;;;8.10;2.00;;;;;;;15.11;67.71;99875.48;104746;1276;69471;-76
2022/06/14 06:25:04;;;;;;;10.00;2.30;;;;;;;14.83;69.32;99876.11;105143;1276;73497;-74
2022/06/14 06:28:05;;;;;;;8.90;2.20;;;;;;;14.81;70.07;99872.60;104624;1278;60522;-73
2022/06/14 06:31:13;;;;;;;9.70;1.90;;;;;;;14.83;70.96;99873.98;106207;1276;60520;-75
2022/06/14 06:34:10;;;;;;;9.50;2.10;;;;;;;15.08;69.97;99873.84;107208;1268;74940;-74
2022/06/14 06:37:48;;;;;;;9.50;1.80;;;;;;;16.28;66.10;99867.02;108545;1267;66606;-73
2022/06/14 06:41:49;;;;;;;10.10;2.10;;;;;;;17.11;63.58;99865.20;108217;1267;71338;-72
2022/06/14 06:43:53;;;;;;;10.50;3.40;;;;;;;17.96;59.63;99865.44;108230;1265;58720;-73
2022/06/14 06:46:57;;;;;;;9.70;2.20;;;;;;;18.08;58.06;99866.11;106629;1265;60906;-74
2022/06/14 06:50:10;;;;;;;9.90;2.00;;;;;;;19.24;55.32;99871.24;105272;1265;74513;-75
2022/06/14 06:53:16;;;;;;;8.30;1.90;;;;;;;20.98;49.36;99860.27;105402;1268;69647;-74
2022/06/14 06:56:18;;;;;;;8.20;1.60;;;;;;;22.12;44.90;99861.65;105699;1265;74304;-75
2022/06/14 06:59:18;;;;;;;7.10;1.40;;;;;;;23.60;40.87;99859.98;105353;1265;60449;-77
2022/06/14 07:02:26;;;;;;;9.20;1.60;;;;;;;22.48;39.96;99863.84;106160;1265;60975;-76
2022/06/14 07:05:15;;;;;;;8.00;1.70;;;;;;;21.25;42.38;99869.39;106060;1265;74234;-76
2022/06/14 07:08:16;;;;;;;7.00;1.40;;;;;;;22.37;40.55;99862.59;105622;1268;68959;-76
2022/06/14 07:11:06;;;;;;;7.80;1.30;;;;;;;23.86;37.62;99862.46;105429;1265;74444;-76
2022/06/14 07:13:54;;;;;;;7.80;1.40;;;;;;;24.89;35.13;99855.77;105592;1265;60474;-75
2022/06/14 07:17:02;;;;;;;6.20;1.30;;;;;;;26.03;34.15;99848.98;105361;1265;61124;-76
2022/06/14 07:20:01;;;;;;;6.60;1.20;;;;;;;26.12;33.09;99848.33;105386;1265;74083;-78
2022/06/14 07:22:54;;;;;;;7.40;1.40;;;;;;;26.00;32.88;99852.39;105689;1265;68029;-73
2022/06/14 07:26:08;;;;;;;7.10;1.30;;;;;;;25.41;33.99;99853.45;105552;1264;74476;-77
2022/06/14 07:29:26;;;;;;;7.70;1.20;;;;;;;25.42;34.18;99854.72;105764;1265;60761;-75
2022/06/14 07:32:29;;;;;;;6.90;1.30;;;;;;;25.94;31.53;99851.98;105732;1265;60510;-76
2022/06/14 07:35:28;;;;;;;6.90;1.10;;;;;;;26.76;30.10;99845.39;105602;1265;74430;-75
2022/06/14 07:38:33;;;;;;;8.10;1.50;;;;;;;27.05;29.46;99854.71;105603;1265;68725;-74
2022/06/14 07:41:46;;;;;;;7.00;1.20;;;;;;;27.60;28.59;99868.99;105868;1265;72512;-74
2022/06/14 07:44:52;;;;;;;7.50;1.30;;;;;;;26.57;30.29;99873.80;105860;1265;60309;-75
2022/06/14 07:48:04;;;;;;;7.70;1.30;;;;;;;24.68;33.16;99875.39;106200;1265;61984;-77
2022/06/14 07:51:16;;;;;;;9.00;1.50;;;;;;;23.20;36.31;99884.79;105721;1268;72646;-74
2022/06/14 07:54:21;;;;;;;7.90;1.40;;;;;;;22.02;38.60;99889.84;105904;1266;67565;-77
2022/06/14 07:57:14;;;;;;;8.90;1.50;;;;;;;20.78;40.63;99888.16;107455;1265;73320;-75
2022/06/14 08:03:28;;;;;;;7.60;2.00;;;;;;;19.29;44.95;99896.45;105586;1265;60337;-78
2022/06/14 08:06:36;;;;;;;9.20;1.30;;;;;;;18.96;46.08;99887.27;105546;1265;74098;-75
2022/06/14 08:10:17;;;;;;;7.00;1.50;;;;;;;18.61;46.53;99889.21;105380;1265;68738;-78
2022/06/14 08:13:15;;;;;;;7.30;1.40;;;;;;;18.49;46.38;99887.91;104972;1274;74433;-77
2022/06/14 08:16:10;;;;;;;8.10;1.90;;;;;;;18.81;46.17;99891.47;104972;1274;60582;-74
2022/06/14 08:19:11;;;;;;;9.30;1.70;;;;;;;20.20;43.72;99885.27;104734;1274;60434;-78
2022/06/14 08:22:07;;;;;;;6.40;1.70;;;;;;;20.52;42.70;99890.36;104774;1274;73322;-74
2022/06/14 08:25:00;;;;;;;8.10;1.60;;;;;;;20.65;42.85;99890.33;104969;1274;68346;-74
2022/06/14 08:28:03;;;;;;;7.40;1.60;;;;;;;20.87;41.54;99888.36;104880;1274;74445;-76
2022/06/14 08:31:19;;;;;;;6.70;1.30;;;;;;;20.53;41.37;99891.91;104893;1274;60547;-73
2022/06/14 08:34:20;;;;;;;9.20;1.70;;;;;;;20.50;42.06;99896.50;104780;1274;60854;-73
2022/06/14 08:38:05;;;;;;;9.60;1.80;;;;;;;20.77;42.08;99901.15;104529;1276;74647;-77
2022/06/14 08:41:15;;;;;;;6.70;1.40;;;;;;;21.90;39.65;99892.23;104742;1274;68446;-75
2022/06/14 08:44:27;;;;;;;8.10;1.30;;;;;;;21.96;39.35;99900.92;104885;1274;73613;-75
2022/06/14 08:47:52;;;;;;;8.10;1.50;;;;;;;21.24;40.51;99907.63;104779;1274;60749;-76
2022/06/14 08:51:11;;;;;;;8.20;1.40;;;;;;;22.03;39.80;99904.86;105304;1268;61978;-76
2022/06/14 08:54:13;;;;;;;8.80;1.70;;;;;;;22.81;37.79;99899.89;105563;1268;75553;-76
2022/06/14 08:57:06;;;;;;;6.40;1.50;;;;;;;23.36;36.39;99900.15;105119;1268;66746;-76
2022/06/14 08:59:53;;;;;;;12.00;6.50;;;;;;;24.24;35.03;99897.67;105208;1268;73097;-76
2022/06/14 09:02:58;;;;;;;6.20;1.40;;;;;;;24.73;34.06;99892.01;105398;1268;60469;-74
2022/06/14 09:06:24;;;;;;;9.10;3.70;;;;;;;23.80;34.94;99896.04;105370;1268;60431;-76
2022/06/14 09:09:48;;;;;;;8.50;2.00;;;;;;;22.49;37.15;99897.86;105190;1266;75523;-75
2022/06/14 09:13:06;;;;;;;8.00;1.70;;;;;;;21.66;39.54;99897.65;105418;1267;67051;-76
2022/06/14 09:16:23;;;;;;;10.50;4.80;;;;;;;21.07;39.93;99888.85;105432;1268;74257;-75
2022/06/14 09:19:34;;;;;;;6.50;1.70;;;;;;;21.89;39.04;99896.97;105554;1267;60555;-76
2022/06/14 09:23:02;;;;;;;8.60;3.50;;;;;;;21.96;37.23;99902.52;105318;1268;62228;-76
2022/06/14 09:26:19;;;;;;;6.70;1.30;;;;;;;22.15;36.86;99904.86;105696;1268;72629;-76
2022/06/14 09:29:46;;;;;;;6.50;1.40;;;;;;;22.83;36.06;99895.10;105366;1268;67087;-76
2022/06/14 09:33:15;;;;;;;7.90;2.60;;;;;;;22.53;35.38;99892.30;105485;1267;71414;-75
2022/06/14 09:36:29;;;;;;;7.50;2.30;;;;;;;21.53;36.50;99906.13;105363;1268;60498;-75
2022/06/14 09:39:57;;;;;;;7.50;1.30;;;;;;;20.87;37.73;99913.73;105519;1268;62242;-77
2022/06/14 09:43:11;;;;;;;8.60;1.80;;;;;;;21.61;37.36;99909.27;105398;1268;75817;-76
2022/06/14 09:46:49;;;;;;;6.10;1.60;;;;;;;22.12;35.85;99901.38;105236;1268;69567;-75
2022/06/14 09:50:25;;;;;;;6.10;1.80;;;;;;;22.57;34.26;99897.52;105234;1274;74573;-75
2022/06/14 09:53:18;;;;;;;7.00;1.50;;;;;;;23.28;33.63;99895.57;104747;1274;60916;-74
2022/06/14 09:56:27;;;;;;;8.40;1.70;;;;;;;23.65;33.49;99898.98;104641;1273;60368;-75
2022/06/14 09:59:25;;;;;;;5.10;1.00;;;;;;;24.51;31.53;99901.52;105005;1274;74608;-76
2022/06/14 10:02:14;;;;;;;8.20;2.20;;;;;;;24.00;32.39;99906.40;104998;1273;68729;-75
2022/06/14 10:05:26;;;;;;;8.40;2.10;;;;;;;22.88;33.27;99908.34;104822;1274;73303;-74
2022/06/14 10:08:45;;;;;;;5.60;1.20;;;;;;;21.97;35.33;99913.73;104948;1273;60536;-76
2022/06/14 10:11:51;;;;;;;7.10;1.60;;;;;;;21.00;37.04;99915.00;104991;1273;60880;-77
2022/06/14 10:15:08;;;;;;;7.20;1.30;;;;;;;20.33;37.91;99921.95;105065;1273;72816;-75
2022/06/14 10:18:04;;;;;;;5.80;1.10;;;;;;;20.61;37.17;99918.94;105024;1273;67361;-76
2022/06/14 10:20:57;;;;;;;7.60;1.30;;;;;;;21.35;36.07;99914.57;105243;1273;72587;-74
2022/06/14 10:23:48;;;;;;;6.10;1.20;;;;;;;21.93;34.85;99904.77;104990;1273;60622;-75
2022/06/14 10:30:07;;;;;;;6.00;1.50;;;;;;;21.82;35.84;99903.36;105467;1266;75495;-74
2022/06/14 10:33:04;;;;;;;7.20;2.40;;;;;;;22.61;35.18;99901.53;105124;1268;69431;-76
2022/06/14 10:36:06;;;;;;;7.00;1.40;;;;;;;22.95;34.72;99901.11;105189;1268;72873;-76
2022/06/14 10:39:22;;;;;;;5.20;1.20;;;;;;;24.29;32.17;99893.63;105669;1266;60545;-76
2022/06/14 10:42:31;;;;;;;5.60;1.10;;;;;;;24.32;30.78;99886.61;105517;1268;62158;-77
2022/06/14 10:45:17;;;;;;;5.70;1.00;;;;;;;23.65;32.17;99899.69;105470;1268;75543;-78
2022/06/14 10:48:07;;;;;;;6.50;1.20;;;;;;;23.91;31.78;99908.65;105286;1268;68555;-77
2022/06/14 10:51:31;;;;;;;7.30;1.10;;;;;;;23.89;31.87;99902.48;105482;1267;70513;-73
2022/06/14 10:54:55;;;;;;;5.40;0.90;;;;;;;24.76;29.47;99896.95;105181;1268;60489;-73
2022/06/14 10:58:14;;;;;;;4.90;1.20;;;;;;;25.23;28.52;99892.55;105279;1268;60465;-73
2022/06/14 11:01:33;;;;;;;6.40;1.10;;;;;;;24.28;30.17;99899.61;105371;1268;76127;-73
2022/06/14 11:04:47;;;;;;;6.00;1.00;;;;;;;23.17;32.16;99906.59;105504;1268;67458;-76
2022/06/14 11:08:05;;;;;;;7.70;1.10;;;;;;;22.21;33.82;99915.94;105390;1268;73446;-75
2022/06/14 11:11:08;;;;;;;6.10;1.10;;;;;;;22.18;34.80;99916.31;105806;1267;60582;-76
2022/06/14 11:14:13;;;;;;;6.40;1.30;;;;;;;22.62;33.97;99909.88;105565;1268;60440;-75
2022/06/14 11:17:02;;;;;;;7.30;1.10;;;;;;;22.64;34.03;99915.52;105596;1268;74121;-78
2022/06/14 11:19:55;;;;;;;6.40;1.10;;;;;;;21.85;35.21;99913.06;105468;1268;66798;-74
2022/06/14 11:23:12;;;;;;;6.20;1.10;;;;;;;21.83;35.71;99921.55;105215;1268;73322;-75
2022/06/14 11:27:00;;;;;;;5.80;1.50;;;;;;;22.17;35.53;99915.34;105364;1268;60600;-75
2022/06/14 11:30:05;;;;;;;6.10;1.20;;;;;;;22.58;34.95;99921.67;104817;1276;60969;-76
2022/06/14 11:33:11;;;;;;;7.40;1.30;;;;;;;22.58;35.13;99919.50;104661;1276;74508;-75
2022/06/14 11:36:16;;;;;;;5.10;1.10;;;;;;;22.51;35.43;99913.42;104737;1276;67358;-78
2022/06/14 11:39:32;;;;;;;6.70;1.30;;;;;;;22.40;35.39;99913.98;104980;1275;73500;-75
2022/06/14 11:42:27;;;;;;;8.60;1.60;;;;;;;22.14;35.73;99924.19;104775;1276;60543;-76
2022/06/14 11:45:58;;;;;;;7.80;1.40;;;;;;;21.71;36.31;99914.61;104957;1275;60456;-74
2022/06/14 11:49:02;;;;;;;6.70;1.40;;;;;;;21.13;36.47;99919.84;104712;1277;74609;-75
2022/06/14 11:52:47;;;;;;;7.90;1.40;;;;;;;20.54;37.81;99922.92;105004;1276;66796;-75
2022/06/14 11:56:02;;;;;;;5.40;1.20;;;;;;;20.13;37.76;99940.55;104687;1276;73804;-75
2022/06/14 11:59:24;;;;;;;5.80;1.10;;;;;;;20.00;38.47;99944.33;105055;1276;60410;-74
2022/06/14 12:02:57;;;;;;;6.00;1.00;;;;;;;20.05;39.92;99936.89;104732;1276;60581;-74
2022/06/14 12:06:11;;;;;;;6.80;1.30;;;;;;;20.15;40.87;99943.98;105155;1268;76010;-76
2022/06/14 12:09:25;;;;;;;7.00;1.50;;;;;;;20.05;41.02;99947.91;105427;1268;67017;-75
2022/06/14 12:12:35;;;;;;;8.50;1.50;;;;;;;19.57;41.46;99952.12;105434;1268;72835;-76
2022/06/14 12:16:06;;;;;;;7.00;2.00;;;;;;;19.27;42.94;99949.45;105514;1268;60466;-76
2022/06/14 12:19:13;;;;;;;7.00;1.60;;;;;;;18.93;43.31;99960.50;105144;1268;60459;-74
2022/06/14 12:22:28;;;;;;;6.70;1.40;;;;;;;18.97;43.71;99957.79;105577;1268;75467;-79
2022/06/14 12:28:58;;;;;;;6.60;1.30;;;;;;;18.97;43.07;99951.98;105207;1267;74504;-74
2022/06/14 12:32:25;;;;;;;6.60;1.40;;;;;;;18.86;42.46;99947.65;105704;1268;60751;-74
2022/06/14 12:35:41;;;;;;;7.00;2.10;;;;;;;18.69;42.46;99943.46;105244;1268;60918;-75
2022/06/14 12:38:36;;;;;;;6.20;1.40;;;;;;;18.65;42.91;99942.65;105140;1268;75725;-77
2022/06/14 12:41:34;;;;;;;8.50;1.50;;;;;;;18.77;43.93;99948.98;105234;1268;69542;-72
2022/06/14 12:45:05;;;;;;;6.10;1.20;;;;;;;18.79;43.98;99943.05;105172;1268;73271;-74
2022/06/14 12:48:31;;;;;;;8.60;1.70;;;;;;;18.64;45.13;99945.45;105513;1268;60548;-76
2022/06/14 12:51:43;;;;;;;7.10;1.40;;;;;;;18.64;45.34;99938.30;105358;1267;60438;-76
2022/06/14 12:54:59;;;;;;;7.10;1.40;;;;;;;18.61;45.46;99939.95;105693;1265;73251;-75
2022/06/14 12:57:55;;;;;;;6.40;1.40;;;;;;;18.57;45.79;99950.69;105549;1268;68557;-76
2022/06/14 13:01:10;;;;;;;6.80;1.30;;;;;;;18.51;44.84;99941.31;105333;1268;72308;-76
2022/06/14 13:04:23;;;;;;;6.90;1.50;;;;;;;18.34;44.03;99951.38;105430;1267;60472;-80
2022/06/14 13:07:32;;;;;;;6.00;1.30;;;;;;;18.05;44.82;99951.84;105571;1268;60416;-78
2022/06/14 13:10:48;;;;;;;6.80;1.30;;;;;;;18.06;44.56;99951.61;105775;1267;73892;-78
2022/06/14 13:13:55;;;;;;;8.10;1.40;;;;;;;18.10;44.92;99953.29;105517;1268;67429;-77
2022/06/14 13:17:32;;;;;;;6.70;1.40;;;;;;;18.20;45.48;99960.67;105749;1268;74214;-77
2022/06/14 13:20:28;;;;;;;6.50;1.30;;;;;;;18.30;45.70;99964.69;105892;1267;60489;-79
2022/06/14 13:23:34;;;;;;;7.80;1.30;;;;;;;18.23;46.48;99961.17;105984;1267;60481;-81
2022/06/14 13:26:45;;;;;;;6.80;1.20;;;;;;;18.23;45.13;99958.34;105372;1268;74811;-78
2022/06/14 13:30:02;;;;;;;8.20;1.60;;;;;;;18.19;45.69;99959.59;105682;1268;68601;-75
2022/06/14 13:33:36;;;;;;;6.00;1.20;;;;;;;18.21;44.64;99955.15;106315;1267;71219;-79
2022/06/14 13:36:55;;;;;;;7.10;1.40;;;;;;;18.29;45.13;99963.07;106038;1266;60537;-77
2022/06/14 13:39:50;;;;;;;6.20;1.30;;;;;;;18.40;45.49;99966.56;105340;1268;60692;-76
2022/06/14 13:42:57;;;;;;;5.90;1.30;;;;;;;18.41;46.06;99969.31;105637;1268;74186;-76
2022/06/14 13:46:02;;;;;;;8.20;1.60;;;;;;;18.48;46.94;99968.72;105803;1267;66574;-78
2022/06/14 13:49:17;;;;;;;5.60;1.20;;;;;;;18.57;47.45;99968.71;105440;1268;74330;-76
2022/06/14 13:52:18;;;;;;;7.20;1.40;;;;;;;18.63;47.35;99966.91;105639;1266;60478;-79
2022/06/14 13:55:30;;;;;;;6.80;1.60;;;;;;;18.60;47.42;99975.07;105565;1268;60588;-75
2022/06/14 13:59:16;;;;;;;8.00;1.50;;;;;;;18.62;47.55;99977.55;105426;1267;74628;-77
2022/06/14 14:02:17;;;;;;;8.00;1.30;;;;;;;18.67;47.28;99981.58;106151;1268;69633;-80
2022/06/14 14:05:21;;;;;;;6.80;1.50;;;;;;;18.51;47.81;99984.66;105974;1265;73417;-81
2022/06/14 14:08:29;;;;;;;7.80;1.60;;;;;;;18.45;47.61;99988.02;105878;1267;60381;-78
2022/06/14 14:11:42;;;;;;;6.70;1.20;;;;;;;18.33;48.10;99989.20;105761;1268;60446;-79
2022/06/14 14:14:35;;;;;;;7.30;1.40;;;;;;;18.22;47.98;99992.77;105841;1267;74143;-78
2022/06/14 14:17:27;;;;;;;10.10;3.10;;;;;;;18.18;47.86;99993.33;105952;1267;67918;-80
2022/06/14 14:20:44;;;;;;;6.40;1.10;;;;;;;18.11;48.67;99992.77;105718;1267;73350;-77
2022/06/14 14:23:47;;;;;;;6.40;1.20;;;;;;;18.04;48.98;99997.25;105818;1267;60462;-78
2022/06/14 14:26:48;;;;;;;7.40;1.70;;;;;;;17.98;49.67;99992.31;106145;1268;60861;-78
2022/06/14 14:29:53;;;;;;;6.40;1.30;;;;;;;18.09;48.58;100000.31;105953;1265;75475;-79
2022/06/14 14:33:03;;;;;;;6.30;1.40;;;;;;;18.03;47.42;99993.55;106148;1266;69967;-78
2022/06/14 14:36:09;;;;;;;7.20;1.40;;;;;;;17.96;47.87;99990.16;106586;1267;71502;-79
2022/06/14 14:39:00;;;;;;;6.30;1.30;;;;;;;17.98;48.43;99990.72;105841;1268;60501;-78
2022/06/14 14:41:53;;;;;;;7.50;1.60;;;;;;;17.93;48.96;99986.21;105725;1267;61767;-77
2022/06/14 14:45:16;;;;;;;5.70;1.40;;;;;;;17.85;48.04;99985.66;105724;1268;73930;-76
2022/06/14 14:48:11;;;;;;;7.90;1.40;;;;;;;17.87;47.55;99981.14;105803;1265;68629;-77